Time;durP1;ratioP1;P1;durP2;ratioP2;P2;SDS_P1;SDS_P2;PMS_P1;PMS_P2;Temp;Humidity;BMP_temperature;BMP_pressure;BME280_temperature;BME280_humidity;BME280_pressure;Samples;Min_cycle;Max_cycle;Signal;HPM_P1;HPM_P2
2022/11/22 00:00:33;;;;;;;;;;;8.70;89.20;;;;;;5113189;28;19984;-89
2022/11/22 00:02:59;;;;;;;;;;;8.70;89.00;;;;;;5112937;28;19942;-89
2022/11/22 00:05:24;;;;;;;;;;;8.80;88.70;;;;;;5113444;28;19972;-89
2022/11/22 00:07:50;;;;;;;;;;;8.80;88.70;;;;;;5113365;28;20391;-89
2022/11/22 00:10:15;;;;;;;;;;;8.80;88.70;;;;;;5113031;28;20366;-89
2022/11/22 00:12:41;;;;;;;;;;;8.70;88.60;;;;;;5113131;28;19950;-89
2022/11/22 00:15:07;;;;;;;;;;;8.60;88.80;;;;;;5113052;28;19980;-90
2022/11/22 00:17:33;;;;;;;;;;;8.70;88.70;;;;;;5114414;28;19945;-90
2022/11/22 00:19:59;;;;;;;;;;;8.80;88.40;;;;;;5116806;28;19950;-89
2022/11/22 00:22:24;;;;;;;;;;;8.90;88.10;;;;;;5116891;28;19974;-90
2022/11/22 00:24:50;;;;;;;;;;;9.00;87.50;;;;;;5116886;28;19983;-89
2022/11/22 00:27:16;;;;;;;;;;;9.00;87.30;;;;;;5116935;28;20408;-89
2022/11/22 00:29:42;;;;;;;;;;;8.90;87.90;;;;;;5116807;28;20308;-89
2022/11/22 00:32:07;;;;;;;;;;;8.80;88.70;;;;;;5116909;28;20028;-89
2022/11/22 00:34:33;;;;;;;;;;;8.90;88.20;;;;;;5116623;28;19944;-89
2022/11/22 00:36:58;;;;;;;;;;;8.90;87.80;;;;;;5116740;28;19949;-89
2022/11/22 00:39:24;;;;;;;;;;;8.90;87.90;;;;;;5116681;28;19948;-89
2022/11/22 00:41:49;;;;;;;;;;;8.80;88.10;;;;;;5116676;28;19941;-90
2022/11/22 00:44:15;;;;;;;;;;;8.80;88.00;;;;;;5116526;28;20052;-90
2022/11/22 00:46:40;;;;;;;;;;;8.80;88.20;;;;;;5116596;28;19995;-89
2022/11/22 00:49:06;;;;;;;;;;;8.80;88.20;;;;;;5116700;28;19945;-91
2022/11/22 00:51:31;;;;;;;;;;;8.90;87.90;;;;;;5116211;28;20000;-90
2022/11/22 00:53:57;;;;;;;;;;;8.90;87.60;;;;;;5116254;28;19966;-89
2022/11/22 00:56:22;;;;;;;;;;;8.90;87.20;;;;;;5116439;28;20026;-90
2022/11/22 00:58:48;;;;;;;;;;;8.90;86.50;;;;;;5116294;28;19985;-90
2022/11/22 01:01:13;;;;;;;;;;;9.00;86.20;;;;;;5116314;28;20005;-89
2022/11/22 01:03:39;;;;;;;;;;;9.10;85.60;;;;;;5115951;28;20466;-89
2022/11/22 01:06:04;;;;;;;;;;;9.20;84.80;;;;;;5097797;28;20447;-89
2022/11/22 01:08:30;;;;;;;;;;;9.30;84.60;;;;;;5115722;28;20043;-89
2022/11/22 01:10:57;;;;;;;;;;;9.20;84.30;;;;;;5115794;28;19944;-90
2022/11/22 01:13:22;;;;;;;;;;;9.30;84.50;;;;;;5115990;28;19991;-90
2022/11/22 01:15:48;;;;;;;;;;;9.30;84.20;;;;;;5116136;28;19989;-89
2022/11/22 01:18:14;;;;;;;;;;;9.40;83.60;;;;;;5115881;28;19990;-89
2022/11/22 01:20:39;;;;;;;;;;;9.20;84.30;;;;;;5115552;28;19946;-90
2022/11/22 01:23:05;;;;;;;;;;;9.20;84.40;;;;;;5115912;28;20019;-90
2022/11/22 01:25:31;;;;;;;;;;;9.30;84.20;;;;;;5115712;28;19962;-90
2022/11/22 01:27:56;;;;;;;;;;;9.30;83.90;;;;;;5115424;28;20307;-89
2022/11/22 01:30:22;;;;;;;;;;;9.20;84.00;;;;;;5115013;28;19945;-89
2022/11/22 01:32:47;;;;;;;;;;;9.10;84.10;;;;;;5115708;28;19949;-89
2022/11/22 01:35:13;;;;;;;;;;;9.20;83.70;;;;;;5115406;28;20035;-90
2022/11/22 01:37:38;;;;;;;;;;;9.30;83.00;;;;;;5115411;28;19944;-89
2022/11/22 01:40:04;;;;;;;;;;;9.30;83.10;;;;;;5111850;28;19944;-90
2022/11/22 01:42:44;;;;;;;;;;;9.30;82.90;;;;;;5115535;28;20348;-90
2022/11/22 01:45:28;;;;;;;;;;;9.40;83.10;;;;;;5115280;28;19965;-89
2022/11/22 01:48:04;;;;;;;;;;;9.40;82.40;;;;;;5115416;28;19952;-90
2022/11/22 01:50:31;;;;;;;;;;;9.50;82.60;;;;;;5115239;28;19947;-91
2022/11/22 01:52:59;;;;;;;;;;;9.50;82.60;;;;;;5115173;28;19957;-90
2022/11/22 01:55:25;;;;;;;;;;;9.40;82.50;;;;;;5115171;28;19990;-90
2022/11/22 01:57:51;;;;;;;;;;;9.40;82.80;;;;;;5114804;28;19948;-90
2022/11/22 02:00:17;;;;;;;;;;;9.40;82.50;;;;;;5115124;28;19983;-89
2022/11/22 02:02:44;;;;;;;;;;;9.40;82.70;;;;;;5115155;28;20404;-90
2022/11/22 02:05:12;;;;;;;;;;;9.40;82.60;;;;;;5114457;28;20100;-90
2022/11/22 02:07:45;;;;;;;;;;;9.40;82.50;;;;;;5096315;28;19948;-89
2022/11/22 02:10:10;;;;;;;;;;;9.50;82.10;;;;;;5114721;28;19950;-89
2022/11/22 02:12:36;;;;;;;;;;;9.50;82.00;;;;;;5114585;28;19949;-90
2022/11/22 02:15:02;;;;;;;;;;;9.50;82.40;;;;;;5114758;28;19939;-90
2022/11/22 02:17:28;;;;;;;;;;;9.50;82.00;;;;;;5114762;28;19945;-90
2022/11/22 02:19:53;;;;;;;;;;;9.60;82.00;;;;;;5114499;28;19948;-89
2022/11/22 02:22:33;;;;;;;;;;;9.50;81.90;;;;;;5114592;28;20027;-90
2022/11/22 02:25:02;;;;;;;;;;;9.50;81.80;;;;;;5114855;28;19976;-90
2022/11/22 02:27:27;;;;;;;;;;;9.60;81.40;;;;;;5114176;28;19954;-90
2022/11/22 02:29:53;;;;;;;;;;;9.60;81.60;;;;;;5114563;28;19990;-90
2022/11/22 02:32:18;;;;;;;;;;;9.70;81.60;;;;;;5114377;28;19951;-90
2022/11/22 02:34:45;;;;;;;;;;;9.60;82.10;;;;;;5114517;28;20419;-89
2022/11/22 02:37:12;;;;;;;;;;;9.50;82.50;;;;;;5114315;28;20011;-90
2022/11/22 02:39:39;;;;;;;;;;;9.40;82.90;;;;;;5114238;28;19963;-89
2022/11/22 02:42:05;;;;;;;;;;;9.40;83.10;;;;;;5091461;28;19940;-90
2022/11/22 02:44:31;;;;;;;;;;;9.40;83.20;;;;;;5114213;28;19964;-90
2022/11/22 02:46:56;;;;;;;;;;;9.30;83.50;;;;;;5113897;28;19999;-90
2022/11/22 02:49:22;;;;;;;;;;;9.30;83.50;;;;;;5114368;28;20306;-89
2022/11/22 02:51:48;;;;;;;;;;;9.30;83.60;;;;;;5113978;28;19990;-90
2022/11/22 02:54:14;;;;;;;;;;;9.30;83.80;;;;;;5114209;28;19944;-90
2022/11/22 02:56:40;;;;;;;;;;;9.30;83.90;;;;;;5114055;28;19948;-89
2022/11/22 02:59:06;;;;;;;;;;;9.30;84.10;;;;;;5113880;28;20338;-89
2022/11/22 03:01:31;;;;;;;;;;;9.30;83.70;;;;;;5113321;28;20531;-90
2022/11/22 03:03:57;;;;;;;;;;;9.40;83.70;;;;;;5113770;28;19984;-90
2022/11/22 03:06:22;;;;;;;;;;;9.40;83.20;;;;;;5113985;28;19948;-89
2022/11/22 03:08:48;;;;;;;;;;;9.40;83.50;;;;;;5095831;28;19972;-90
2022/11/22 03:11:14;;;;;;;;;;;9.40;83.50;;;;;;5113850;28;19948;-90
2022/11/22 03:13:39;;;;;;;;;;;9.40;83.50;;;;;;5113846;28;19971;-90
2022/11/22 03:16:05;;;;;;;;;;;9.40;83.60;;;;;;5113773;28;19956;-90
2022/11/22 03:18:34;;;;;;;;;;;9.30;84.10;;;;;;5113649;28;19943;-90
2022/11/22 03:21:07;;;;;;;;;;;9.20;84.60;;;;;;5113681;28;19945;-89
2022/11/22 03:23:33;;;;;;;;;;;9.20;84.70;;;;;;5113059;28;20018;-89
2022/11/22 03:26:05;;;;;;;;;;;9.10;85.40;;;;;;5113807;28;20334;-89
2022/11/22 03:28:30;;;;;;;;;;;9.10;85.70;;;;;;5113492;28;19938;-90
2022/11/22 03:30:56;;;;;;;;;;;9.00;86.20;;;;;;5113646;28;19946;-89
2022/11/22 03:33:22;;;;;;;;;;;8.90;86.60;;;;;;5113476;28;19972;-89
2022/11/22 03:35:47;;;;;;;;;;;8.90;87.30;;;;;;5113544;28;20425;-90
2022/11/22 03:38:13;;;;;;;;;;;8.70;87.80;;;;;;5113247;28;20330;-90
2022/11/22 03:40:38;;;;;;;;;;;8.60;88.20;;;;;;5113441;28;20424;-90
2022/11/22 03:43:04;;;;;;;;;;;8.60;88.20;;;;;;5113000;28;20397;-90
2022/11/22 03:45:29;;;;;;;;;;;8.60;88.30;;;;;;5113306;28;20435;-90
2022/11/22 03:47:56;;;;;;;;;;;8.70;88.30;;;;;;5113237;28;20082;-90
2022/11/22 03:50:22;;;;;;;;;;;8.70;88.30;;;;;;5113389;28;19946;-90
2022/11/22 03:52:47;;;;;;;;;;;8.60;88.60;;;;;;5114583;28;19970;-89
2022/11/22 03:55:13;;;;;;;;;;;8.60;88.90;;;;;;5117603;28;20418;-89
2022/11/22 03:57:38;;;;;;;;;;;8.60;89.10;;;;;;5117211;28;20317;-90
2022/11/22 04:00:04;;;;;;;;;;;8.60;88.90;;;;;;5117583;28;19980;-90
2022/11/22 04:02:30;;;;;;;;;;;8.70;89.00;;;;;;5117434;28;19966;-89
2022/11/22 04:04:55;;;;;;;;;;;8.70;89.10;;;;;;5117109;28;20393;-89
2022/11/22 04:07:21;;;;;;;;;;;8.70;89.20;;;;;;5117479;28;19990;-90
2022/11/22 04:09:47;;;;;;;;;;;8.70;89.40;;;;;;5116924;28;20388;-89
2022/11/22 04:12:12;;;;;;;;;;;8.70;89.50;;;;;;5117360;28;20294;-90
2022/11/22 04:17:40;;;;;;;;;;;8.70;89.20;;;;;;5117673;28;19964;-90
2022/11/22 04:23:08;;;;;;;;;;;8.80;89.10;;;;;;5116694;28;20020;-89
2022/11/22 04:25:34;;;;;;;;;;;8.80;89.10;;;;;;5116730;28;20404;-90
2022/11/22 04:28:00;;;;;;;;;;;8.80;89.40;;;;;;5117175;28;20007;-90
2022/11/22 04:32:44;;;;;;;;;;;8.80;89.40;;;;;;5117001;28;19949;-89
2022/11/22 04:33:12;;;;;;;;;;;8.80;89.40;;;;;;5116706;28;19947;-90
2022/11/22 04:35:38;;;;;;;;;;;8.80;89.20;;;;;;5116581;28;19950;-89
2022/11/22 04:38:04;;;;;;;;;;;8.80;89.40;;;;;;5116854;28;19944;-90
2022/11/22 04:40:30;;;;;;;;;;;8.80;89.40;;;;;;5098148;28;19945;-90
2022/11/22 04:45:39;;;;;;;;;;;8.80;89.60;;;;;;5116081;28;19968;-90
2022/11/22 04:48:05;;;;;;;;;;;8.80;89.70;;;;;;5116504;28;19942;-90
2022/11/22 04:53:15;;;;;;;;;;;8.90;89.70;;;;;;5116096;28;19973;-90
2022/11/22 04:55:42;;;;;;;;;;;8.80;89.90;;;;;;5116419;28;19997;-90
2022/11/22 04:58:08;;;;;;;;;;;8.90;89.70;;;;;;5116074;28;20452;-90
2022/11/22 05:00:33;;;;;;;;;;;8.90;89.80;;;;;;5116195;28;19949;-90
2022/11/22 05:02:59;;;;;;;;;;;8.90;89.70;;;;;;5116160;28;20295;-90
2022/11/22 05:05:25;;;;;;;;;;;8.90;89.80;;;;;;5114689;28;19964;-90
2022/11/22 05:07:50;;;;;;;;;;;9.00;89.70;;;;;;5116426;28;19945;-89
2022/11/22 05:10:16;;;;;;;;;;;8.90;89.80;;;;;;5116223;28;19971;-90
2022/11/22 05:12:42;;;;;;;;;;;8.90;89.80;;;;;;5116057;28;19945;-90
2022/11/22 05:15:08;;;;;;;;;;;8.90;90.00;;;;;;5115761;28;19949;-89
2022/11/22 05:17:33;;;;;;;;;;;9.00;90.10;;;;;;5116076;28;20389;-90
2022/11/22 05:19:59;;;;;;;;;;;9.00;90.10;;;;;;5115748;28;19949;-90
2022/11/22 05:25:12;;;;;;;;;;;9.10;89.80;;;;;;5115568;28;20496;-89
2022/11/22 05:27:37;;;;;;;;;;;9.10;89.70;;;;;;5116047;28;19940;-89
2022/11/22 05:30:04;;;;;;;;;;;9.10;89.90;;;;;;5097651;28;19947;-90
2022/11/22 05:32:30;;;;;;;;;;;9.10;90.00;;;;;;5115859;28;20027;-89
2022/11/22 05:34:56;;;;;;;;;;;9.10;90.00;;;;;;5115904;28;19978;-90
2022/11/22 05:37:21;;;;;;;;;;;9.20;90.10;;;;;;5115788;28;19949;-89
2022/11/22 05:39:47;;;;;;;;;;;9.20;90.10;;;;;;5115782;28;19951;-90
2022/11/22 05:42:13;;;;;;;;;;;9.20;90.30;;;;;;5115693;28;19941;-90
2022/11/22 05:44:38;;;;;;;;;;;9.20;90.50;;;;;;5115610;28;19963;-90
2022/11/22 05:47:04;;;;;;;;;;;9.20;90.80;;;;;;5097382;28;19948;-90
2022/11/22 05:49:29;;;;;;;;;;;9.20;90.70;;;;;;5115562;28;20301;-90
2022/11/22 05:51:55;;;;;;;;;;;9.20;90.70;;;;;;5115673;28;19989;-90
2022/11/22 05:54:20;;;;;;;;;;;9.30;90.60;;;;;;5115502;28;19943;-91
2022/11/22 05:56:47;;;;;;;;;;;9.40;90.50;;;;;;5114893;28;19951;-90
2022/11/22 05:59:13;;;;;;;;;;;9.30;90.70;;;;;;5114971;28;19995;-90
2022/11/22 06:01:38;;;;;;;;;;;9.30;91.00;;;;;;5115244;28;20357;-90
2022/11/22 06:04:04;;;;;;;;;;;9.30;90.80;;;;;;5094916;28;19941;-91
2022/11/22 06:06:29;;;;;;;;;;;9.30;90.90;;;;;;5114115;28;19980;-90
2022/11/22 06:08:55;;;;;;;;;;;9.40;90.70;;;;;;5115470;28;19938;-90
2022/11/22 06:11:21;;;;;;;;;;;9.40;90.70;;;;;;5115062;28;20318;-90
2022/11/22 06:13:48;;;;;;;;;;;9.40;90.60;;;;;;5114242;28;19984;-90
2022/11/22 06:16:14;;;;;;;;;;;9.40;90.50;;;;;;5114557;28;19948;-90
2022/11/22 06:18:39;;;;;;;;;;;9.40;90.60;;;;;;5114204;28;19951;-90
2022/11/22 06:21:06;;;;;;;;;;;9.50;90.50;;;;;;5095235;28;19948;-89
2022/11/22 06:23:32;;;;;;;;;;;9.60;90.40;;;;;;5095324;28;20099;-90
2022/11/22 06:25:59;;;;;;;;;;;9.60;90.50;;;;;;5107641;28;20050;-90
2022/11/22 06:28:25;;;;;;;;;;;9.60;90.70;;;;;;5110941;28;20822;-90
2022/11/22 06:30:51;;;;;;;;;;;9.60;90.80;;;;;;5107012;28;21333;-90
2022/11/22 06:33:16;;;;;;;;;;;9.60;90.80;;;;;;5104937;28;19952;-89
2022/11/22 06:35:42;;;;;;;;;;;9.60;90.80;;;;;;5111835;28;19942;-89
2022/11/22 06:38:07;;;;;;;;;;;9.60;90.80;;;;;;5108359;28;19943;-89
2022/11/22 06:40:33;;;;;;;;;;;9.60;91.00;;;;;;5103343;28;19945;-89
2022/11/22 06:42:58;;;;;;;;;;;9.50;91.20;;;;;;5105247;28;19946;-89
2022/11/22 06:45:24;;;;;;;;;;;9.60;91.00;;;;;;5109262;28;20491;-89
2022/11/22 06:47:49;;;;;;;;;;;9.50;91.10;;;;;;5104104;28;20018;-90
2022/11/22 06:50:15;;;;;;;;;;;9.40;91.30;;;;;;5098826;28;20126;-90
2022/11/22 06:52:40;;;;;;;;;;;9.40;91.30;;;;;;5112507;28;20285;-90
2022/11/22 06:55:06;;;;;;;;;;;9.40;91.10;;;;;;5111829;28;19945;-89
2022/11/22 06:57:32;;;;;;;;;;;9.40;91.30;;;;;;5089614;28;20344;-89
2022/11/22 06:59:57;;;;;;;;;;;9.30;91.50;;;;;;5109082;28;19998;-89
2022/11/22 07:02:23;;;;;;;;;;;9.40;91.60;;;;;;5107365;28;19949;-89
2022/11/22 07:04:48;;;;;;;;;;;9.40;91.70;;;;;;5110124;28;20453;-90
2022/11/22 07:07:14;;;;;;;;;;;9.50;91.50;;;;;;5111348;28;19950;-89
2022/11/22 07:09:39;;;;;;;;;;;9.50;91.80;;;;;;5106067;28;19983;-89
2022/11/22 07:12:05;;;;;;;;;;;9.50;91.40;;;;;;5106839;28;20632;-90
2022/11/22 07:14:30;;;;;;;;;;;9.50;91.20;;;;;;5112176;28;20291;-90
2022/11/22 07:16:56;;;;;;;;;;;9.50;90.80;;;;;;5108868;28;19945;-90
2022/11/22 07:19:22;;;;;;;;;;;9.50;91.10;;;;;;5110992;28;19951;-90
2022/11/22 07:21:48;;;;;;;;;;;9.50;90.90;;;;;;5109480;28;19942;-90
2022/11/22 07:24:14;;;;;;;;;;;9.60;90.70;;;;;;5097367;22;19987;-89
2022/11/22 07:26:39;;;;;;;;;;;9.60;90.70;;;;;;5088857;28;19946;-89
2022/11/22 07:29:05;;;;;;;;;;;9.60;90.80;;;;;;5090999;28;19944;-88
2022/11/22 07:31:31;;;;;;;;;;;9.60;90.80;;;;;;5072202;28;19944;-90
2022/11/22 07:33:57;;;;;;;;;;;9.70;90.90;;;;;;5090766;28;20335;-90
2022/11/22 07:36:23;;;;;;;;;;;9.70;91.20;;;;;;5091531;28;19948;-90
2022/11/22 07:38:49;;;;;;;;;;;9.60;91.30;;;;;;5066205;28;20454;-89
2022/11/22 07:41:15;;;;;;;;;;;9.70;91.50;;;;;;5090505;28;19940;-90
2022/11/22 07:43:41;;;;;;;;;;;9.70;91.40;;;;;;5091547;28;19953;-90
2022/11/22 07:46:31;;;;;;;;;;;9.80;91.30;;;;;;5086546;28;19959;-90
2022/11/22 07:48:58;;;;;;;;;;;9.80;91.40;;;;;;5084866;28;19970;-89
2022/11/22 07:51:24;;;;;;;;;;;9.80;91.50;;;;;;5091955;28;20415;-89
2022/11/22 07:53:49;;;;;;;;;;;9.90;91.50;;;;;;5110211;28;19969;-89
2022/11/22 07:56:15;;;;;;;;;;;9.90;91.20;;;;;;5109178;28;19985;-90
2022/11/22 07:58:41;;;;;;;;;;;9.90;91.40;;;;;;5105940;28;19948;-89
2022/11/22 08:01:17;;;;;;;;;;;9.90;91.60;;;;;;5111142;28;19949;-90
2022/11/22 08:03:43;;;;;;;;;;;9.90;91.70;;;;;;5092597;28;19942;-91
2022/11/22 08:06:09;;;;;;;;;;;9.90;91.70;;;;;;5104743;28;19957;-89
2022/11/22 08:08:35;;;;;;;;;;;10.00;91.90;;;;;;5111305;28;19941;-90
2022/11/22 08:11:01;;;;;;;;;;;10.10;91.80;;;;;;5108754;28;19979;-89
2022/11/22 08:13:27;;;;;;;;;;;10.20;91.50;;;;;;5108186;28;20004;-90
2022/11/22 08:15:52;;;;;;;;;;;10.20;91.40;;;;;;5109295;28;20149;-90
2022/11/22 08:18:18;;;;;;;;;;;10.20;91.50;;;;;;5110821;28;19956;-89
2022/11/22 08:20:43;;;;;;;;;;;10.30;91.20;;;;;;5108291;28;19949;-90
2022/11/22 08:23:09;;;;;;;;;;;10.30;91.00;;;;;;5099198;28;20028;-90
2022/11/22 08:25:34;;;;;;;;;;;10.30;91.20;;;;;;5086903;28;20417;-89
2022/11/22 08:28:00;;;;;;;;;;;10.30;91.00;;;;;;5079592;28;20414;-89
2022/11/22 08:30:25;;;;;;;;;;;10.30;91.10;;;;;;5064878;28;20325;-90
2022/11/22 08:32:54;;;;;;;;;;;10.30;91.30;;;;;;5084395;28;19955;-90
2022/11/22 08:35:20;;;;;;;;;;;10.20;91.30;;;;;;5061193;28;19943;-90
2022/11/22 08:37:45;;;;;;;;;;;10.20;91.50;;;;;;5081494;28;19941;-89
2022/11/22 08:40:11;;;;;;;;;;;10.10;91.70;;;;;;5078753;28;20358;-90
2022/11/22 08:42:36;;;;;;;;;;;10.20;91.80;;;;;;5078539;28;20904;-89
2022/11/22 08:45:02;;;;;;;;;;;10.20;91.90;;;;;;5090406;28;19956;-88
2022/11/22 08:47:28;;;;;;;;;;;10.20;91.60;;;;;;5074923;28;20708;-90
2022/11/22 08:49:53;;;;;;;;;;;10.20;91.40;;;;;;5085739;28;20478;-90
2022/11/22 08:52:19;;;;;;;;;;;10.30;91.30;;;;;;5078700;28;19958;-90
2022/11/22 08:54:44;;;;;;;;;;;10.30;90.90;;;;;;5080707;28;20415;-90
2022/11/22 08:57:10;;;;;;;;;;;10.30;91.00;;;;;;5067271;28;19989;-90
2022/11/22 08:59:36;;;;;;;;;;;10.30;91.00;;;;;;5082913;28;19955;-89
2022/11/22 09:02:01;;;;;;;;;;;10.30;91.10;;;;;;5080586;28;20329;-89
2022/11/22 09:04:27;;;;;;;;;;;10.30;91.30;;;;;;5085243;28;20408;-90
2022/11/22 09:06:52;;;;;;;;;;;10.30;90.90;;;;;;5084145;28;19942;-89
2022/11/22 09:09:18;;;;;;;;;;;10.20;91.10;;;;;;5088592;28;19938;-90
2022/11/22 09:11:44;;;;;;;;;;;10.30;91.20;;;;;;5088570;28;19946;-91
2022/11/22 09:14:09;;;;;;;;;;;10.30;91.10;;;;;;5075525;28;19949;-90
2022/11/22 09:16:35;;;;;;;;;;;10.20;91.20;;;;;;5079592;28;20325;-90
2022/11/22 09:19:00;;;;;;;;;;;10.20;91.20;;;;;;5088035;28;19945;-90
2022/11/22 09:21:26;;;;;;;;;;;10.20;91.10;;;;;;5090732;28;19993;-90
2022/11/22 09:23:53;;;;;;;;;;;10.20;91.10;;;;;;5108139;28;19978;-90
2022/11/22 09:26:25;;;;;;;;;;;10.30;91.10;;;;;;5114250;28;19966;-90
2022/11/22 09:28:52;;;;;;;;;;;10.30;91.20;;;;;;5109624;28;19941;-89
2022/11/22 09:31:22;;;;;;;;;;;10.30;91.20;;;;;;5112261;28;19957;-90
2022/11/22 09:33:48;;;;;;;;;;;10.20;91.40;;;;;;5113189;28;20039;-90
2022/11/22 09:36:17;;;;;;;;;;;10.30;91.50;;;;;;5111028;28;20037;-90
2022/11/22 09:38:43;;;;;;;;;;;10.20;91.30;;;;;;5111864;28;19943;-89
2022/11/22 09:41:22;;;;;;;;;;;10.30;91.00;;;;;;5112184;28;20463;-90
2022/11/22 09:43:48;;;;;;;;;;;10.20;90.90;;;;;;5112592;28;19953;-90
2022/11/22 09:46:13;;;;;;;;;;;10.20;90.80;;;;;;5107622;28;19961;-90
2022/11/22 09:48:58;;;;;;;;;;;10.20;90.80;;;;;;5110832;28;19941;-90
2022/11/22 09:51:28;;;;;;;;;;;10.20;91.00;;;;;;5104017;28;19948;-90
2022/11/22 09:54:04;;;;;;;;;;;10.20;90.50;;;;;;5106067;28;19959;-89
2022/11/22 09:56:29;;;;;;;;;;;10.20;90.40;;;;;;5109817;28;19943;-90
2022/11/22 09:59:02;;;;;;;;;;;10.20;90.10;;;;;;5111622;28;19969;-90
2022/11/22 10:01:37;;;;;;;;;;;10.10;89.70;;;;;;5093476;28;19949;-89
2022/11/22 10:04:23;;;;;;;;;;;10.10;89.80;;;;;;5114058;28;19963;-89
2022/11/22 10:06:51;;;;;;;;;;;10.10;89.70;;;;;;5096206;28;20048;-90
2022/11/22 10:09:21;;;;;;;;;;;10.00;89.50;;;;;;5109109;28;20092;-90
2022/11/22 10:11:49;;;;;;;;;;;10.00;89.20;;;;;;5111673;28;19939;-90
2022/11/22 10:14:26;;;;;;;;;;;10.00;89.50;;;;;;5114140;28;19952;-90
2022/11/22 10:16:55;;;;;;;;;;;10.00;89.40;;;;;;5109567;28;20160;-90
2022/11/22 10:19:38;;;;;;;;;;;10.00;88.90;;;;;;5110224;28;19949;-90
2022/11/22 10:22:09;;;;;;;;;;;10.10;88.90;;;;;;5105502;28;19940;-90
2022/11/22 10:24:35;;;;;;;;;;;10.00;88.60;;;;;;5109026;28;20537;-90
2022/11/22 10:27:01;;;;;;;;;;;10.10;88.20;;;;;;5109751;28;20204;-90
2022/11/22 10:29:32;;;;;;;;;;;10.10;88.50;;;;;;5109642;28;19942;-89
2022/11/22 10:31:58;;;;;;;;;;;10.10;87.80;;;;;;5109947;28;20050;-89
2022/11/22 10:34:39;;;;;;;;;;;10.20;87.90;;;;;;5111409;28;20026;-90
2022/11/22 10:37:07;;;;;;;;;;;10.30;87.60;;;;;;5111288;28;19936;-90
2022/11/22 10:39:47;;;;;;;;;;;10.30;87.40;;;;;;5112031;28;20063;-90
2022/11/22 10:42:28;;;;;;;;;;;10.40;87.30;;;;;;5088824;28;20018;-90
2022/11/22 10:45:03;;;;;;;;;;;10.40;87.00;;;;;;5106328;28;20050;-89
2022/11/22 10:47:47;;;;;;;;;;;10.40;86.60;;;;;;5111196;28;19951;-90
2022/11/22 10:50:18;;;;;;;;;;;10.50;86.30;;;;;;5108615;28;20357;-90
2022/11/22 10:52:54;;;;;;;;;;;10.50;85.80;;;;;;5111832;28;20041;-90
2022/11/22 10:55:38;;;;;;;;;;;10.50;85.80;;;;;;5101631;28;19945;-90
2022/11/22 10:58:10;;;;;;;;;;;10.40;85.80;;;;;;5111292;28;20012;-90
2022/11/22 11:00:38;;;;;;;;;;;10.40;86.10;;;;;;5113688;28;19951;-90
2022/11/22 11:03:23;;;;;;;;;;;10.30;85.50;;;;;;5087510;28;21886;-89
2022/11/22 11:05:58;;;;;;;;;;;10.30;85.30;;;;;;5110512;28;19960;-89
2022/11/22 11:08:41;;;;;;;;;;;10.10;85.40;;;;;;5081923;28;19946;-90
2022/11/22 11:11:07;;;;;;;;;;;10.10;85.50;;;;;;5110530;28;19981;-90
2022/11/22 11:13:35;;;;;;;;;;;10.10;86.00;;;;;;5110875;28;19994;-90
2022/11/22 11:16:02;;;;;;;;;;;10.00;86.10;;;;;;5110757;28;19941;-90
2022/11/22 11:18:27;;;;;;;;;;;10.00;86.30;;;;;;5112544;28;19945;-90
2022/11/22 11:20:53;;;;;;;;;;;10.00;86.20;;;;;;5097941;28;20349;-90
2022/11/22 11:23:19;;;;;;;;;;;9.90;86.40;;;;;;5104523;28;19977;-90
2022/11/22 11:25:46;;;;;;;;;;;9.90;86.40;;;;;;5113966;28;19960;-90
2022/11/22 11:28:22;;;;;;;;;;;9.90;86.60;;;;;;5113517;28;20425;-90
2022/11/22 11:30:51;;;;;;;;;;;9.90;86.80;;;;;;5111641;28;19946;-89
2022/11/22 11:33:23;;;;;;;;;;;9.90;86.60;;;;;;5111585;28;20413;-89
2022/11/22 11:35:49;;;;;;;;;;;9.90;86.20;;;;;;5112535;28;19946;-89
2022/11/22 11:38:25;;;;;;;;;;;10.00;86.00;;;;;;5110817;28;19946;-89
2022/11/22 11:40:50;;;;;;;;;;;10.00;86.00;;;;;;5095448;28;19986;-90
2022/11/22 11:43:20;;;;;;;;;;;10.00;86.20;;;;;;5113653;28;19936;-89
2022/11/22 11:45:45;;;;;;;;;;;10.00;85.70;;;;;;5112800;28;20011;-90
2022/11/22 11:48:27;;;;;;;;;;;10.00;86.00;;;;;;5113580;28;19985;-90
2022/11/22 11:51:25;;;;;;;;;;;10.00;86.10;;;;;;5113568;28;20400;-89
2022/11/22 11:53:50;;;;;;;;;;;10.00;85.80;;;;;;5057206;28;19967;-90
2022/11/22 11:56:17;;;;;;;;;;;10.10;85.90;;;;;;5113113;28;19951;-90
2022/11/22 11:58:48;;;;;;;;;;;10.10;86.10;;;;;;5113473;28;19959;-90
2022/11/22 12:01:17;;;;;;;;;;;10.10;85.80;;;;;;5113468;28;20049;-89
2022/11/22 12:03:49;;;;;;;;;;;10.20;85.40;;;;;;5113392;28;19946;-90
2022/11/22 12:06:16;;;;;;;;;;;10.10;86.20;;;;;;5112947;28;19969;-90
2022/11/22 12:08:41;;;;;;;;;;;10.10;86.30;;;;;;5094063;28;19946;-90
2022/11/22 12:11:10;;;;;;;;;;;10.10;86.40;;;;;;5110840;28;20034;-90
2022/11/22 12:13:36;;;;;;;;;;;10.10;86.50;;;;;;5114796;28;19940;-90
2022/11/22 12:16:10;;;;;;;;;;;10.00;86.80;;;;;;5117210;28;20357;-89
2022/11/22 12:18:42;;;;;;;;;;;10.10;86.60;;;;;;5116928;28;19952;-89
2022/11/22 12:21:13;;;;;;;;;;;10.10;86.80;;;;;;5113557;27;19943;-89
2022/11/22 12:23:46;;;;;;;;;;;10.00;87.50;;;;;;5096126;27;19996;-89
2022/11/22 12:26:13;;;;;;;;;;;10.00;87.40;;;;;;5089599;28;19951;-90
2022/11/22 12:28:38;;;;;;;;;;;9.90;87.30;;;;;;5093224;28;19990;-90
2022/11/22 12:31:13;;;;;;;;;;;9.90;87.30;;;;;;5084592;28;20387;-89
2022/11/22 12:33:40;;;;;;;;;;;9.90;87.70;;;;;;5091128;28;19948;-90
2022/11/22 12:36:11;;;;;;;;;;;9.90;87.60;;;;;;5091746;28;19941;-90
2022/11/22 12:38:39;;;;;;;;;;;9.90;88.00;;;;;;5094955;28;20008;-90
2022/11/22 12:41:08;;;;;;;;;;;9.90;88.00;;;;;;5085484;28;19951;-89
2022/11/22 12:43:42;;;;;;;;;;;9.90;87.80;;;;;;5092641;28;19941;-90
2022/11/22 12:46:19;;;;;;;;;;;9.90;87.80;;;;;;5094435;28;19992;-89
2022/11/22 12:48:47;;;;;;;;;;;9.90;87.70;;;;;;5092335;28;19950;-90
2022/11/22 12:51:22;;;;;;;;;;;9.80;87.70;;;;;;5094099;28;19949;-90
2022/11/22 12:53:48;;;;;;;;;;;9.80;87.70;;;;;;5090111;28;20047;-89
2022/11/22 12:56:16;;;;;;;;;;;9.80;87.60;;;;;;5090756;28;20052;-89
2022/11/22 12:58:48;;;;;;;;;;;9.70;88.00;;;;;;5073884;28;19940;-90
2022/11/22 13:01:37;;;;;;;;;;;9.80;87.90;;;;;;5092396;28;20563;-89
2022/11/22 13:04:03;;;;;;;;;;;9.80;88.10;;;;;;5078203;28;19981;-90
2022/11/22 13:06:33;;;;;;;;;;;10.00;87.00;;;;;;5093540;28;19996;-90
2022/11/22 13:08:59;;;;;;;;;;;10.00;87.10;;;;;;5092432;28;19947;-90
2022/11/22 13:11:34;;;;;;;;;;;10.10;86.70;;;;;;5094529;28;19940;-90
2022/11/22 13:14:05;;;;;;;;;;;10.10;86.50;;;;;;5093597;28;19983;-90
2022/11/22 13:16:32;;;;;;;;;;;10.10;86.40;;;;;;5086139;28;20025;-89
2022/11/22 13:18:59;;;;;;;;;;;10.10;86.00;;;;;;5092548;28;20030;-90
2022/11/22 13:21:29;;;;;;;;;;;10.00;85.70;;;;;;5093123;28;19946;-90
2022/11/22 13:23:58;;;;;;;;;;;10.00;86.30;;;;;;5099066;28;19948;-89
2022/11/22 13:26:42;;;;;;;;;;;9.90;86.50;;;;;;5107178;28;19963;-90
2022/11/22 13:29:17;;;;;;;;;;;9.80;87.40;;;;;;5101928;28;19946;-89
2022/11/22 13:32:19;;;;;;;;;;;9.70;88.30;;;;;;5107981;28;20001;-90
2022/11/22 13:35:03;;;;;;;;;;;9.50;88.40;;;;;;5038757;28;20427;-90
2022/11/22 13:37:30;;;;;;;;;;;9.40;88.60;;;;;;5097926;28;19946;-91
2022/11/22 13:39:55;;;;;;;;;;;9.50;88.20;;;;;;5112253;28;19964;-90
2022/11/22 13:42:23;;;;;;;;;;;9.60;87.70;;;;;;5093287;28;20384;-90
2022/11/22 13:44:49;;;;;;;;;;;9.50;87.40;;;;;;5110599;28;20078;-90
2022/11/22 13:47:34;;;;;;;;;;;9.40;87.40;;;;;;5113779;28;20025;-89
2022/11/22 13:50:00;;;;;;;;;;;9.40;87.50;;;;;;5113574;28;19977;-90
2022/11/22 13:52:26;;;;;;;;;;;9.30;87.60;;;;;;5108840;28;20451;-91
2022/11/22 13:54:52;;;;;;;;;;;9.20;87.50;;;;;;5110307;28;19944;-90
2022/11/22 13:57:33;;;;;;;;;;;9.10;87.60;;;;;;5093412;28;20387;-90
2022/11/22 14:00:05;;;;;;;;;;;9.10;88.00;;;;;;5113367;28;19952;-90
2022/11/22 14:02:30;;;;;;;;;;;9.10;88.10;;;;;;5104693;28;19944;-89
2022/11/22 14:04:56;;;;;;;;;;;9.10;88.70;;;;;;5105878;28;20307;-89
2022/11/22 14:07:32;;;;;;;;;;;9.00;89.00;;;;;;5112711;28;19946;-89
2022/11/22 14:09:58;;;;;;;;;;;9.00;89.40;;;;;;5107206;28;19980;-90
2022/11/22 14:12:43;;;;;;;;;;;8.90;90.00;;;;;;5111907;28;20385;-90
2022/11/22 14:15:11;;;;;;;;;;;8.90;90.10;;;;;;5107234;28;19969;-90
2022/11/22 14:17:37;;;;;;;;;;;9.00;89.50;;;;;;5110324;28;19945;-90
2022/11/22 14:20:02;;;;;;;;;;;9.10;89.10;;;;;;5112006;28;19952;-90
2022/11/22 14:22:48;;;;;;;;;;;9.20;89.20;;;;;;5112262;28;19976;-90
2022/11/22 14:25:17;;;;;;;;;;;9.10;89.30;;;;;;5111392;28;19963;-90
2022/11/22 14:27:48;;;;;;;;;;;9.10;89.30;;;;;;5111682;28;19941;-89
2022/11/22 14:30:18;;;;;;;;;;;9.20;89.30;;;;;;5105319;28;20063;-89
2022/11/22 14:32:59;;;;;;;;;;;9.10;89.40;;;;;;5112198;28;19941;-90
2022/11/22 14:35:35;;;;;;;;;;;9.10;89.50;;;;;;5090129;28;19948;-90
2022/11/22 14:38:24;;;;;;;;;;;9.00;89.60;;;;;;5104994;28;19967;-89
2022/11/22 14:40:50;;;;;;;;;;;8.90;89.60;;;;;;5096550;28;19954;-90
2022/11/22 14:43:31;;;;;;;;;;;8.90;89.70;;;;;;5101157;28;19944;-90
2022/11/22 14:46:10;;;;;;;;;;;8.80;90.30;;;;;;5109825;28;19999;-89